sensor_id;sensor_type;location;lat;lon;timestamp;P1;durP1;ratioP1;P2;durP2;ratioP2
48367;SDS011;34173;47.446;18.912;2022-08-04T00:01:30;4.47;;;2.55;;
48367;SDS011;34173;47.446;18.912;2022-08-04T00:04:03;3.75;;;2.30;;
48367;SDS011;34173;47.446;18.912;2022-08-04T00:09:16;5.25;;;2.37;;
48367;SDS011;34173;47.446;18.912;2022-08-04T00:11:52;5.60;;;3.00;;
48367;SDS011;34173;47.446;18.912;2022-08-04T00:14:21;6.12;;;2.62;;
48367;SDS011;34173;47.446;18.912;2022-08-04T00:16:49;6.65;;;2.92;;
48367;SDS011;34173;47.446;18.912;2022-08-04T00:19:31;10.95;;;2.83;;
48367;SDS011;34173;47.446;18.912;2022-08-04T00:22:05;4.68;;;2.60;;
48367;SDS011;34173;47.446;18.912;2022-08-04T00:24:35;11.82;;;2.90;;
48367;SDS011;34173;47.446;18.912;2022-08-04T00:27:03;5.72;;;3.15;;
48367;SDS011;34173;47.446;18.912;2022-08-04T00:29:32;5.00;;;2.50;;
48367;SDS011;34173;47.446;18.912;2022-08-04T00:32:00;4.72;;;2.70;;
48367;SDS011;34173;47.446;18.912;2022-08-04T00:34:28;6.15;;;2.53;;
48367;SDS011;34173;47.446;18.912;2022-08-04T00:36:57;6.60;;;2.87;;
48367;SDS011;34173;47.446;18.912;2022-08-04T00:39:25;4.25;;;2.22;;
48367;SDS011;34173;47.446;18.912;2022-08-04T00:50:10;4.20;;;2.22;;
48367;SDS011;34173;47.446;18.912;2022-08-04T00:58:05;3.12;;;2.00;;
48367;SDS011;34173;47.446;18.912;2022-08-04T01:30:55;6.05;;;2.72;;
48367;SDS011;34173;47.446;18.912;2022-08-04T01:33:25;6.47;;;2.95;;
48367;SDS011;34173;47.446;18.912;2022-08-04T01:35:56;6.47;;;3.10;;
48367;SDS011;34173;47.446;18.912;2022-08-04T01:38:33;7.45;;;2.95;;
48367;SDS011;34173;47.446;18.912;2022-08-04T01:41:04;5.30;;;2.50;;
48367;SDS011;34173;47.446;18.912;2022-08-04T01:43:39;6.25;;;2.50;;
48367;SDS011;34173;47.446;18.912;2022-08-04T01:46:09;6.28;;;2.53;;
48367;SDS011;34173;47.446;18.912;2022-08-04T01:48:39;5.47;;;2.70;;
48367;SDS011;34173;47.446;18.912;2022-08-04T01:51:07;7.07;;;2.62;;
48367;SDS011;34173;47.446;18.912;2022-08-04T01:53:40;4.93;;;2.70;;
48367;SDS011;34173;47.446;18.912;2022-08-04T01:56:09;5.57;;;2.25;;
48367;SDS011;34173;47.446;18.912;2022-08-04T01:58:38;4.18;;;2.58;;
48367;SDS011;34173;47.446;18.912;2022-08-04T02:01:09;4.30;;;2.22;;
48367;SDS011;34173;47.446;18.912;2022-08-04T02:03:40;5.12;;;2.37;;
48367;SDS011;34173;47.446;18.912;2022-08-04T02:12:00;5.18;;;2.55;;
48367;SDS011;34173;47.446;18.912;2022-08-04T02:14:34;3.72;;;2.47;;
48367;SDS011;34173;47.446;18.912;2022-08-04T02:17:11;6.93;;;2.40;;
48367;SDS011;34173;47.446;18.912;2022-08-04T02:22:21;5.65;;;2.62;;
48367;SDS011;34173;47.446;18.912;2022-08-04T02:24:57;4.20;;;2.40;;
48367;SDS011;34173;47.446;18.912;2022-08-04T02:27:28;7.50;;;2.70;;
48367;SDS011;34173;47.446;18.912;2022-08-04T02:30:27;6.22;;;2.60;;
48367;SDS011;34173;47.446;18.912;2022-08-04T02:32:59;3.90;;;2.58;;
48367;SDS011;34173;47.446;18.912;2022-08-04T02:35:31;3.50;;;2.37;;
48367;SDS011;34173;47.446;18.912;2022-08-04T02:38:15;4.15;;;2.50;;
48367;SDS011;34173;47.446;18.912;2022-08-04T02:40:52;5.22;;;2.65;;
48367;SDS011;34173;47.446;18.912;2022-08-04T02:43:26;8.45;;;2.78;;
48367;SDS011;34173;47.446;18.912;2022-08-04T02:46:15;4.78;;;2.80;;
48367;SDS011;34173;47.446;18.912;2022-08-04T02:48:45;6.25;;;3.08;;
48367;SDS011;34173;47.446;18.912;2022-08-04T02:51:14;4.40;;;2.87;;
48367;SDS011;34173;47.446;18.912;2022-08-04T02:53:44;4.90;;;2.83;;
48367;SDS011;34173;47.446;18.912;2022-08-04T02:56:12;5.43;;;2.70;;
48367;SDS011;34173;47.446;18.912;2022-08-04T02:58:41;7.22;;;3.37;;
48367;SDS011;34173;47.446;18.912;2022-08-04T03:01:13;5.62;;;3.10;;
48367;SDS011;34173;47.446;18.912;2022-08-04T03:03:47;5.72;;;2.85;;
48367;SDS011;34173;47.446;18.912;2022-08-04T03:06:35;7.32;;;3.03;;
48367;SDS011;34173;47.446;18.912;2022-08-04T03:17:55;5.32;;;2.87;;
48367;SDS011;34173;47.446;18.912;2022-08-04T03:23:37;5.32;;;3.00;;
48367;SDS011;34173;47.446;18.912;2022-08-04T03:35:29;6.10;;;3.37;;
48367;SDS011;34173;47.446;18.912;2022-08-04T03:44:20;5.60;;;3.40;;
48367;SDS011;34173;47.446;18.912;2022-08-04T03:50:18;8.60;;;3.80;;
48367;SDS011;34173;47.446;18.912;2022-08-04T04:04:30;9.20;;;4.30;;
48367;SDS011;34173;47.446;18.912;2022-08-04T04:27:09;9.27;;;4.90;;
48367;SDS011;34173;47.446;18.912;2022-08-04T04:40:49;8.90;;;4.05;;
48367;SDS011;34173;47.446;18.912;2022-08-04T04:51:50;8.70;;;4.43;;
48367;SDS011;34173;47.446;18.912;2022-08-04T04:54:33;9.73;;;4.70;;
48367;SDS011;34173;47.446;18.912;2022-08-04T04:57:12;7.90;;;4.20;;
48367;SDS011;34173;47.446;18.912;2022-08-04T04:59:46;8.10;;;4.00;;
48367;SDS011;34173;47.446;18.912;2022-08-04T05:02:33;7.22;;;4.03;;
48367;SDS011;34173;47.446;18.912;2022-08-04T05:05:25;9.60;;;4.70;;
48367;SDS011;34173;47.446;18.912;2022-08-04T05:11:08;6.70;;;3.80;;
48367;SDS011;34173;47.446;18.912;2022-08-04T05:13:47;7.68;;;4.65;;
48367;SDS011;34173;47.446;18.912;2022-08-04T05:16:40;10.60;;;4.07;;
48367;SDS011;34173;47.446;18.912;2022-08-04T05:22:47;7.40;;;3.10;;
48367;SDS011;34173;47.446;18.912;2022-08-04T05:25:04;8.05;;;2.90;;
48367;SDS011;34173;47.446;18.912;2022-08-04T05:27:35;9.13;;;3.00;;
48367;SDS011;34173;47.446;18.912;2022-08-04T05:30:06;7.47;;;3.10;;
48367;SDS011;34173;47.446;18.912;2022-08-04T05:32:47;4.80;;;2.83;;
48367;SDS011;34173;47.446;18.912;2022-08-04T05:35:23;4.75;;;2.45;;
48367;SDS011;34173;47.446;18.912;2022-08-04T05:38:16;4.45;;;2.53;;
48367;SDS011;34173;47.446;18.912;2022-08-04T05:40:46;5.57;;;2.70;;
48367;SDS011;34173;47.446;18.912;2022-08-04T05:43:14;4.55;;;2.50;;
48367;SDS011;34173;47.446;18.912;2022-08-04T05:45:42;4.45;;;2.15;;
48367;SDS011;34173;47.446;18.912;2022-08-04T05:48:10;7.22;;;2.50;;
48367;SDS011;34173;47.446;18.912;2022-08-04T05:50:38;4.45;;;2.40;;
48367;SDS011;34173;47.446;18.912;2022-08-04T05:53:05;4.50;;;2.35;;
48367;SDS011;34173;47.446;18.912;2022-08-04T05:55:36;4.82;;;2.17;;
48367;SDS011;34173;47.446;18.912;2022-08-04T05:58:23;3.60;;;2.42;;
48367;SDS011;34173;47.446;18.912;2022-08-04T06:00:51;4.50;;;2.47;;
48367;SDS011;34173;47.446;18.912;2022-08-04T06:03:21;6.45;;;2.40;;
48367;SDS011;34173;47.446;18.912;2022-08-04T06:05:48;4.12;;;2.30;;
48367;SDS011;34173;47.446;18.912;2022-08-04T06:08:16;4.28;;;2.55;;
48367;SDS011;34173;47.446;18.912;2022-08-04T06:10:44;4.62;;;2.30;;
48367;SDS011;34173;47.446;18.912;2022-08-04T06:13:13;3.85;;;2.37;;
48367;SDS011;34173;47.446;18.912;2022-08-04T06:16:04;6.45;;;2.30;;
48367;SDS011;34173;47.446;18.912;2022-08-04T06:18:32;7.70;;;2.28;;
48367;SDS011;34173;47.446;18.912;2022-08-04T06:21:23;7.03;;;2.37;;
48367;SDS011;34173;47.446;18.912;2022-08-04T06:23:53;5.18;;;2.42;;
48367;SDS011;34173;47.446;18.912;2022-08-04T06:26:32;5.82;;;2.28;;
48367;SDS011;34173;47.446;18.912;2022-08-04T06:29:00;7.37;;;2.50;;
48367;SDS011;34173;47.446;18.912;2022-08-04T06:31:31;4.00;;;2.30;;
48367;SDS011;34173;47.446;18.912;2022-08-04T06:34:29;9.55;;;2.30;;
48367;SDS011;34173;47.446;18.912;2022-08-04T06:36:57;6.00;;;2.30;;
48367;SDS011;34173;47.446;18.912;2022-08-04T06:39:25;4.68;;;2.33;;
48367;SDS011;34173;47.446;18.912;2022-08-04T06:41:54;3.75;;;2.28;;
48367;SDS011;34173;47.446;18.912;2022-08-04T06:44:45;3.92;;;2.40;;
48367;SDS011;34173;47.446;18.912;2022-08-04T06:47:17;5.00;;;2.60;;
48367;SDS011;34173;47.446;18.912;2022-08-04T06:49:47;5.20;;;2.17;;
48367;SDS011;34173;47.446;18.912;2022-08-04T06:52:36;4.82;;;2.42;;
48367;SDS011;34173;47.446;18.912;2022-08-04T06:55:04;9.05;;;3.17;;
48367;SDS011;34173;47.446;18.912;2022-08-04T06:57:33;4.95;;;2.60;;
48367;SDS011;34173;47.446;18.912;2022-08-04T07:02:33;4.72;;;2.30;;
48367;SDS011;34173;47.446;18.912;2022-08-04T07:05:06;5.62;;;2.10;;
48367;SDS011;34173;47.446;18.912;2022-08-04T07:07:34;6.30;;;2.12;;
48367;SDS011;34173;47.446;18.912;2022-08-04T07:10:03;4.53;;;2.40;;
48367;SDS011;34173;47.446;18.912;2022-08-04T07:12:32;4.97;;;2.00;;
48367;SDS011;34173;47.446;18.912;2022-08-04T07:15:00;7.43;;;2.15;;
48367;SDS011;34173;47.446;18.912;2022-08-04T07:17:27;7.85;;;2.40;;
48367;SDS011;34173;47.446;18.912;2022-08-04T07:20:02;4.78;;;2.03;;
48367;SDS011;34173;47.446;18.912;2022-08-04T07:22:31;4.05;;;2.30;;
48367;SDS011;34173;47.446;18.912;2022-08-04T07:24:59;4.47;;;1.83;;
48367;SDS011;34173;47.446;18.912;2022-08-04T07:27:27;4.07;;;2.12;;
48367;SDS011;34173;47.446;18.912;2022-08-04T07:30:15;3.78;;;2.15;;
48367;SDS011;34173;47.446;18.912;2022-08-04T07:32:49;4.87;;;1.98;;
48367;SDS011;34173;47.446;18.912;2022-08-04T07:35:17;5.82;;;1.87;;
48367;SDS011;34173;47.446;18.912;2022-08-04T07:38:05;5.12;;;2.10;;
48367;SDS011;34173;47.446;18.912;2022-08-04T07:40:35;10.18;;;2.10;;
48367;SDS011;34173;47.446;18.912;2022-08-04T07:43:03;3.37;;;1.58;;
48367;SDS011;34173;47.446;18.912;2022-08-04T07:45:31;5.57;;;1.77;;
48367;SDS011;34173;47.446;18.912;2022-08-04T07:47:59;4.28;;;1.75;;
48367;SDS011;34173;47.446;18.912;2022-08-04T07:50:32;5.07;;;1.90;;
48367;SDS011;34173;47.446;18.912;2022-08-04T07:53:00;4.05;;;1.60;;
48367;SDS011;34173;47.446;18.912;2022-08-04T07:55:48;4.85;;;1.60;;
48367;SDS011;34173;47.446;18.912;2022-08-04T07:58:15;4.93;;;1.70;;
48367;SDS011;34173;47.446;18.912;2022-08-04T08:00:44;8.50;;;1.80;;
48367;SDS011;34173;47.446;18.912;2022-08-04T08:03:12;3.78;;;1.73;;
48367;SDS011;34173;47.446;18.912;2022-08-04T08:05:47;4.20;;;2.15;;
48367;SDS011;34173;47.446;18.912;2022-08-04T08:08:38;4.87;;;1.62;;
48367;SDS011;34173;47.446;18.912;2022-08-04T08:11:06;2.78;;;1.75;;
48367;SDS011;34173;47.446;18.912;2022-08-04T08:13:35;4.93;;;1.95;;
48367;SDS011;34173;47.446;18.912;2022-08-04T08:16:03;3.70;;;1.80;;
48367;SDS011;34173;47.446;18.912;2022-08-04T08:18:31;7.18;;;1.92;;
48367;SDS011;34173;47.446;18.912;2022-08-04T08:20:59;5.80;;;1.80;;
48367;SDS011;34173;47.446;18.912;2022-08-04T08:23:27;4.85;;;1.80;;
48367;SDS011;34173;47.446;18.912;2022-08-04T08:25:57;5.15;;;1.75;;
48367;SDS011;34173;47.446;18.912;2022-08-04T08:28:25;6.90;;;1.65;;
48367;SDS011;34173;47.446;18.912;2022-08-04T08:30:53;2.72;;;1.62;;
48367;SDS011;34173;47.446;18.912;2022-08-04T08:33:25;4.05;;;2.08;;
48367;SDS011;34173;47.446;18.912;2022-08-04T08:38:26;4.93;;;1.95;;
48367;SDS011;34173;47.446;18.912;2022-08-04T08:44:09;6.45;;;1.90;;
48367;SDS011;34173;47.446;18.912;2022-08-04T08:56:07;3.17;;;1.90;;
48367;SDS011;34173;47.446;18.912;2022-08-04T08:58:57;3.10;;;1.73;;
48367;SDS011;34173;47.446;18.912;2022-08-04T09:01:46;4.65;;;1.58;;
48367;SDS011;34173;47.446;18.912;2022-08-04T09:07:05;3.35;;;2.10;;
48367;SDS011;34173;47.446;18.912;2022-08-04T09:09:52;6.40;;;1.87;;
48367;SDS011;34173;47.446;18.912;2022-08-04T09:12:40;4.65;;;1.85;;
48367;SDS011;34173;47.446;18.912;2022-08-04T09:15:21;3.22;;;1.90;;
48367;SDS011;34173;47.446;18.912;2022-08-04T09:18:02;4.00;;;1.85;;
48367;SDS011;34173;47.446;18.912;2022-08-04T09:20:44;2.85;;;1.95;;
48367;SDS011;34173;47.446;18.912;2022-08-04T09:31:32;5.05;;;2.47;;
48367;SDS011;34173;47.446;18.912;2022-08-04T09:34:33;3.67;;;1.70;;
48367;SDS011;34173;47.446;18.912;2022-08-04T09:37:38;3.67;;;2.00;;
48367;SDS011;34173;47.446;18.912;2022-08-04T09:43:26;3.80;;;2.08;;
48367;SDS011;34173;47.446;18.912;2022-08-04T09:46:21;6.80;;;2.10;;
48367;SDS011;34173;47.446;18.912;2022-08-04T09:55:37;4.65;;;2.05;;
48367;SDS011;34173;47.446;18.912;2022-08-04T10:01:24;7.97;;;2.20;;
48367;SDS011;34173;47.446;18.912;2022-08-04T10:03:57;4.32;;;2.08;;
48367;SDS011;34173;47.446;18.912;2022-08-04T10:20:29;4.62;;;1.77;;
48367;SDS011;34173;47.446;18.912;2022-08-04T10:29:08;3.08;;;1.90;;
48367;SDS011;34173;47.446;18.912;2022-08-04T10:31:59;7.00;;;2.30;;
48367;SDS011;34173;47.446;18.912;2022-08-04T10:34:43;8.00;;;2.20;;
48367;SDS011;34173;47.446;18.912;2022-08-04T10:37:21;3.28;;;2.10;;
48367;SDS011;34173;47.446;18.912;2022-08-04T10:40:21;6.25;;;2.40;;
48367;SDS011;34173;47.446;18.912;2022-08-04T10:54:26;2.53;;;1.70;;
48367;SDS011;34173;47.446;18.912;2022-08-04T10:57:07;5.78;;;2.30;;
48367;SDS011;34173;47.446;18.912;2022-08-04T11:00:17;4.35;;;2.30;;
48367;SDS011;34173;47.446;18.912;2022-08-04T11:02:52;4.97;;;2.28;;
48367;SDS011;34173;47.446;18.912;2022-08-04T11:07:56;4.65;;;2.10;;
48367;SDS011;34173;47.446;18.912;2022-08-04T11:10:30;4.28;;;2.30;;
48367;SDS011;34173;47.446;18.912;2022-08-04T11:13:02;4.32;;;2.53;;
48367;SDS011;34173;47.446;18.912;2022-08-04T11:15:35;9.02;;;2.40;;
48367;SDS011;34173;47.446;18.912;2022-08-04T11:18:06;6.37;;;2.33;;
48367;SDS011;34173;47.446;18.912;2022-08-04T11:20:46;4.32;;;2.45;;
48367;SDS011;34173;47.446;18.912;2022-08-04T11:23:18;4.37;;;2.28;;
48367;SDS011;34173;47.446;18.912;2022-08-04T11:25:58;4.20;;;2.12;;
48367;SDS011;34173;47.446;18.912;2022-08-04T11:28:48;3.97;;;2.25;;
48367;SDS011;34173;47.446;18.912;2022-08-04T11:31:31;5.70;;;2.40;;
48367;SDS011;34173;47.446;18.912;2022-08-04T11:37:11;4.65;;;2.60;;
48367;SDS011;34173;47.446;18.912;2022-08-04T11:40:10;3.50;;;2.40;;
48367;SDS011;34173;47.446;18.912;2022-08-04T11:42:38;4.32;;;2.65;;
48367;SDS011;34173;47.446;18.912;2022-08-04T11:45:14;10.98;;;3.15;;
48367;SDS011;34173;47.446;18.912;2022-08-04T11:47:50;4.18;;;2.70;;
48367;SDS011;34173;47.446;18.912;2022-08-04T11:50:29;5.75;;;2.60;;
48367;SDS011;34173;47.446;18.912;2022-08-04T11:53:00;5.15;;;2.50;;
48367;SDS011;34173;47.446;18.912;2022-08-04T11:55:28;6.03;;;2.35;;
48367;SDS011;34173;47.446;18.912;2022-08-04T11:58:18;4.07;;;2.33;;
48367;SDS011;34173;47.446;18.912;2022-08-04T12:00:50;4.43;;;2.65;;
48367;SDS011;34173;47.446;18.912;2022-08-04T12:03:24;4.70;;;2.17;;
48367;SDS011;34173;47.446;18.912;2022-08-04T12:09:10;3.65;;;2.45;;
48367;SDS011;34173;47.446;18.912;2022-08-04T12:14:46;4.00;;;2.80;;
48367;SDS011;34173;47.446;18.912;2022-08-04T12:17:21;3.78;;;2.70;;
48367;SDS011;34173;47.446;18.912;2022-08-04T12:20:03;4.30;;;2.60;;
48367;SDS011;34173;47.446;18.912;2022-08-04T12:22:52;4.53;;;2.80;;
48367;SDS011;34173;47.446;18.912;2022-08-04T12:25:23;4.57;;;2.50;;
48367;SDS011;34173;47.446;18.912;2022-08-04T12:28:00;4.80;;;2.55;;
48367;SDS011;34173;47.446;18.912;2022-08-04T12:30:33;3.62;;;2.53;;
48367;SDS011;34173;47.446;18.912;2022-08-04T12:33:23;7.25;;;2.67;;
48367;SDS011;34173;47.446;18.912;2022-08-04T12:36:23;4.03;;;2.47;;
48367;SDS011;34173;47.446;18.912;2022-08-04T12:39:25;6.93;;;2.70;;
48367;SDS011;34173;47.446;18.912;2022-08-04T12:44:47;4.40;;;2.60;;
48367;SDS011;34173;47.446;18.912;2022-08-04T12:47:24;5.53;;;2.75;;
48367;SDS011;34173;47.446;18.912;2022-08-04T12:50:03;7.53;;;3.00;;
48367;SDS011;34173;47.446;18.912;2022-08-04T12:52:42;3.62;;;2.50;;
48367;SDS011;34173;47.446;18.912;2022-08-04T12:55:31;4.75;;;2.42;;
48367;SDS011;34173;47.446;18.912;2022-08-04T12:58:00;6.55;;;2.40;;
48367;SDS011;34173;47.446;18.912;2022-08-04T13:00:33;4.97;;;2.75;;
48367;SDS011;34173;47.446;18.912;2022-08-04T13:03:11;4.05;;;2.67;;
48367;SDS011;34173;47.446;18.912;2022-08-04T13:05:41;7.95;;;3.00;;
48367;SDS011;34173;47.446;18.912;2022-08-04T13:08:09;5.05;;;2.87;;
48367;SDS011;34173;47.446;18.912;2022-08-04T13:10:38;4.72;;;2.85;;
48367;SDS011;34173;47.446;18.912;2022-08-04T13:13:18;7.97;;;2.65;;
48367;SDS011;34173;47.446;18.912;2022-08-04T13:16:01;4.75;;;2.85;;
48367;SDS011;34173;47.446;18.912;2022-08-04T13:18:46;4.97;;;2.83;;
48367;SDS011;34173;47.446;18.912;2022-08-04T13:21:17;8.43;;;2.83;;
48367;SDS011;34173;47.446;18.912;2022-08-04T13:24:11;3.45;;;2.45;;
48367;SDS011;34173;47.446;18.912;2022-08-04T13:26:52;5.37;;;2.80;;
48367;SDS011;34173;47.446;18.912;2022-08-04T13:29:24;4.22;;;2.60;;
48367;SDS011;34173;47.446;18.912;2022-08-04T13:32:16;3.75;;;2.70;;
48367;SDS011;34173;47.446;18.912;2022-08-04T13:34:46;4.32;;;2.62;;
48367;SDS011;34173;47.446;18.912;2022-08-04T13:37:20;5.03;;;2.60;;
48367;SDS011;34173;47.446;18.912;2022-08-04T13:39:51;4.62;;;2.75;;
48367;SDS011;34173;47.446;18.912;2022-08-04T13:42:23;3.92;;;2.70;;
48367;SDS011;34173;47.446;18.912;2022-08-04T13:44:53;5.55;;;2.78;;
48367;SDS011;34173;47.446;18.912;2022-08-04T13:47:30;3.97;;;2.85;;
48367;SDS011;34173;47.446;18.912;2022-08-04T13:52:51;4.95;;;2.37;;
48367;SDS011;34173;47.446;18.912;2022-08-04T13:57:54;5.93;;;2.85;;
48367;SDS011;34173;47.446;18.912;2022-08-04T14:00:24;3.30;;;2.53;;
48367;SDS011;34173;47.446;18.912;2022-08-04T14:03:01;4.70;;;2.83;;
48367;SDS011;34173;47.446;18.912;2022-08-04T14:06:10;6.65;;;2.70;;
48367;SDS011;34173;47.446;18.912;2022-08-04T14:11:35;4.50;;;2.72;;
48367;SDS011;34173;47.446;18.912;2022-08-04T14:14:28;6.47;;;2.67;;
48367;SDS011;34173;47.446;18.912;2022-08-04T14:17:07;3.67;;;2.58;;
48367;SDS011;34173;47.446;18.912;2022-08-04T14:19:59;5.20;;;2.40;;
48367;SDS011;34173;47.446;18.912;2022-08-04T14:22:29;7.07;;;2.90;;
48367;SDS011;34173;47.446;18.912;2022-08-04T14:24:58;4.10;;;2.70;;
48367;SDS011;34173;47.446;18.912;2022-08-04T14:35:58;3.95;;;2.58;;
48367;SDS011;34173;47.446;18.912;2022-08-04T14:38:44;7.78;;;2.80;;
48367;SDS011;34173;47.446;18.912;2022-08-04T14:42:00;4.25;;;2.53;;
48367;SDS011;34173;47.446;18.912;2022-08-04T14:44:12;4.35;;;2.37;;
48367;SDS011;34173;47.446;18.912;2022-08-04T14:46:49;6.40;;;2.80;;
48367;SDS011;34173;47.446;18.912;2022-08-04T14:49:18;4.95;;;2.53;;
48367;SDS011;34173;47.446;18.912;2022-08-04T14:51:56;4.65;;;2.62;;
48367;SDS011;34173;47.446;18.912;2022-08-04T14:54:33;3.60;;;2.67;;
48367;SDS011;34173;47.446;18.912;2022-08-04T14:57:02;3.70;;;2.60;;
48367;SDS011;34173;47.446;18.912;2022-08-04T14:59:52;4.68;;;2.40;;
48367;SDS011;34173;47.446;18.912;2022-08-04T15:02:28;5.68;;;2.47;;
48367;SDS011;34173;47.446;18.912;2022-08-04T15:04:56;4.25;;;2.50;;
48367;SDS011;34173;47.446;18.912;2022-08-04T15:07:45;3.78;;;2.50;;
48367;SDS011;34173;47.446;18.912;2022-08-04T15:10:12;4.43;;;2.60;;
48367;SDS011;34173;47.446;18.912;2022-08-04T15:12:40;4.95;;;2.50;;
48367;SDS011;34173;47.446;18.912;2022-08-04T15:15:08;5.47;;;2.30;;
48367;SDS011;34173;47.446;18.912;2022-08-04T15:17:55;9.05;;;2.90;;
48367;SDS011;34173;47.446;18.912;2022-08-04T15:20:23;4.37;;;2.55;;
48367;SDS011;34173;47.446;18.912;2022-08-04T15:22:51;5.78;;;2.55;;
48367;SDS011;34173;47.446;18.912;2022-08-04T15:25:18;7.55;;;2.83;;
48367;SDS011;34173;47.446;18.912;2022-08-04T15:27:47;5.87;;;2.75;;
48367;SDS011;34173;47.446;18.912;2022-08-04T15:30:16;6.12;;;2.70;;
48367;SDS011;34173;47.446;18.912;2022-08-04T15:32:49;10.18;;;2.70;;
48367;SDS011;34173;47.446;18.912;2022-08-04T15:35:23;3.62;;;2.58;;
48367;SDS011;34173;47.446;18.912;2022-08-04T15:38:01;4.25;;;2.53;;
48367;SDS011;34173;47.446;18.912;2022-08-04T15:40:42;5.22;;;3.00;;
48367;SDS011;34173;47.446;18.912;2022-08-04T15:45:56;5.78;;;2.70;;
48367;SDS011;34173;47.446;18.912;2022-08-04T15:48:46;6.47;;;2.72;;
48367;SDS011;34173;47.446;18.912;2022-08-04T15:51:14;5.82;;;2.58;;
48367;SDS011;34173;47.446;18.912;2022-08-04T15:58:57;5.87;;;2.80;;
48367;SDS011;34173;47.446;18.912;2022-08-04T16:01:24;5.62;;;3.03;;
48367;SDS011;34173;47.446;18.912;2022-08-04T16:03:54;5.15;;;2.62;;
48367;SDS011;34173;47.446;18.912;2022-08-04T16:08:57;4.87;;;2.55;;
48367;SDS011;34173;47.446;18.912;2022-08-04T16:22:34;6.65;;;2.78;;
48367;SDS011;34173;47.446;18.912;2022-08-04T16:25:05;4.68;;;2.87;;
48367;SDS011;34173;47.446;18.912;2022-08-04T16:27:35;5.70;;;2.60;;
48367;SDS011;34173;47.446;18.912;2022-08-04T16:30:10;5.22;;;2.70;;
48367;SDS011;34173;47.446;18.912;2022-08-04T16:32:44;9.43;;;2.60;;
48367;SDS011;34173;47.446;18.912;2022-08-04T16:35:17;4.07;;;2.37;;
48367;SDS011;34173;47.446;18.912;2022-08-04T16:37:45;10.25;;;2.55;;
48367;SDS011;34173;47.446;18.912;2022-08-04T16:43:08;5.70;;;2.80;;
48367;SDS011;34173;47.446;18.912;2022-08-04T16:48:14;6.95;;;2.62;;
48367;SDS011;34173;47.446;18.912;2022-08-04T16:50:46;6.50;;;2.75;;
48367;SDS011;34173;47.446;18.912;2022-08-04T16:53:18;7.05;;;2.75;;
48367;SDS011;34173;47.446;18.912;2022-08-04T16:56:11;5.50;;;2.80;;
48367;SDS011;34173;47.446;18.912;2022-08-04T16:58:40;4.78;;;2.95;;
48367;SDS011;34173;47.446;18.912;2022-08-04T17:01:21;5.70;;;2.72;;
48367;SDS011;34173;47.446;18.912;2022-08-04T17:04:01;4.65;;;2.85;;
48367;SDS011;34173;47.446;18.912;2022-08-04T17:06:36;4.50;;;2.70;;
48367;SDS011;34173;47.446;18.912;2022-08-04T17:09:08;5.78;;;2.78;;
48367;SDS011;34173;47.446;18.912;2022-08-04T17:11:37;6.35;;;2.83;;
48367;SDS011;34173;47.446;18.912;2022-08-04T17:14:05;5.25;;;2.80;;
48367;SDS011;34173;47.446;18.912;2022-08-04T17:16:36;6.00;;;2.80;;
48367;SDS011;34173;47.446;18.912;2022-08-04T17:19:05;6.30;;;2.40;;
48367;SDS011;34173;47.446;18.912;2022-08-04T17:21:54;14.65;;;2.90;;
48367;SDS011;34173;47.446;18.912;2022-08-04T17:24:37;7.87;;;2.92;;
48367;SDS011;34173;47.446;18.912;2022-08-04T17:27:07;7.80;;;2.50;;
48367;SDS011;34173;47.446;18.912;2022-08-04T17:29:54;5.57;;;2.58;;
48367;SDS011;34173;47.446;18.912;2022-08-04T17:32:22;6.18;;;2.83;;
48367;SDS011;34173;47.446;18.912;2022-08-04T17:34:51;6.62;;;2.87;;
48367;SDS011;34173;47.446;18.912;2022-08-04T17:37:20;5.28;;;3.12;;
48367;SDS011;34173;47.446;18.912;2022-08-04T17:40:08;5.50;;;2.55;;
48367;SDS011;34173;47.446;18.912;2022-08-04T17:42:38;8.40;;;2.85;;
48367;SDS011;34173;47.446;18.912;2022-08-04T17:45:12;6.70;;;2.83;;
48367;SDS011;34173;47.446;18.912;2022-08-04T17:48:05;6.28;;;2.67;;
48367;SDS011;34173;47.446;18.912;2022-08-04T17:50:35;7.93;;;2.83;;
48367;SDS011;34173;47.446;18.912;2022-08-04T17:53:09;5.85;;;3.12;;
48367;SDS011;34173;47.446;18.912;2022-08-04T17:55:43;6.35;;;3.20;;
48367;SDS011;34173;47.446;18.912;2022-08-04T17:58:17;8.68;;;2.97;;
48367;SDS011;34173;47.446;18.912;2022-08-04T18:01:00;5.40;;;2.95;;
48367;SDS011;34173;47.446;18.912;2022-08-04T18:03:48;5.30;;;2.95;;
48367;SDS011;34173;47.446;18.912;2022-08-04T18:06:20;6.78;;;2.78;;
48367;SDS011;34173;47.446;18.912;2022-08-04T18:08:55;6.15;;;2.80;;
48367;SDS011;34173;47.446;18.912;2022-08-04T18:11:54;7.78;;;3.20;;
48367;SDS011;34173;47.446;18.912;2022-08-04T18:14:36;7.95;;;3.22;;
48367;SDS011;34173;47.446;18.912;2022-08-04T18:17:09;7.47;;;3.03;;
48367;SDS011;34173;47.446;18.912;2022-08-04T18:19:57;7.45;;;3.00;;
48367;SDS011;34173;47.446;18.912;2022-08-04T18:22:27;4.97;;;3.20;;
48367;SDS011;34173;47.446;18.912;2022-08-04T18:24:54;11.05;;;2.90;;
48367;SDS011;34173;47.446;18.912;2022-08-04T18:27:24;9.82;;;3.17;;
48367;SDS011;34173;47.446;18.912;2022-08-04T18:29:56;21.77;;;4.22;;
48367;SDS011;34173;47.446;18.912;2022-08-04T18:32:44;4.45;;;2.97;;
48367;SDS011;34173;47.446;18.912;2022-08-04T18:35:32;6.60;;;3.53;;
48367;SDS011;34173;47.446;18.912;2022-08-04T18:38:21;7.97;;;3.53;;
48367;SDS011;34173;47.446;18.912;2022-08-04T18:40:50;9.68;;;3.40;;
48367;SDS011;34173;47.446;18.912;2022-08-04T18:43:21;12.15;;;3.80;;
48367;SDS011;34173;47.446;18.912;2022-08-04T18:45:56;9.80;;;3.58;;
48367;SDS011;34173;47.446;18.912;2022-08-04T18:48:26;9.73;;;3.62;;
48367;SDS011;34173;47.446;18.912;2022-08-04T18:51:03;9.60;;;4.78;;
48367;SDS011;34173;47.446;18.912;2022-08-04T18:53:50;8.30;;;4.40;;
48367;SDS011;34173;47.446;18.912;2022-08-04T18:56:28;10.80;;;4.75;;
48367;SDS011;34173;47.446;18.912;2022-08-04T18:58:59;13.00;;;4.40;;
48367;SDS011;34173;47.446;18.912;2022-08-04T19:01:30;9.18;;;4.45;;
48367;SDS011;34173;47.446;18.912;2022-08-04T19:04:18;11.32;;;4.95;;
48367;SDS011;34173;47.446;18.912;2022-08-04T19:07:03;7.95;;;4.43;;
48367;SDS011;34173;47.446;18.912;2022-08-04T19:09:52;10.40;;;4.18;;
48367;SDS011;34173;47.446;18.912;2022-08-04T19:12:25;10.90;;;4.35;;
48367;SDS011;34173;47.446;18.912;2022-08-04T19:14:55;7.32;;;4.62;;
48367;SDS011;34173;47.446;18.912;2022-08-04T19:17:37;11.60;;;4.85;;
48367;SDS011;34173;47.446;18.912;2022-08-04T19:20:24;9.07;;;4.28;;
48367;SDS011;34173;47.446;18.912;2022-08-04T19:22:53;7.47;;;4.70;;
48367;SDS011;34173;47.446;18.912;2022-08-04T19:25:42;11.48;;;4.65;;
48367;SDS011;34173;47.446;18.912;2022-08-04T19:28:30;8.43;;;4.43;;
48367;SDS011;34173;47.446;18.912;2022-08-04T19:31:05;8.55;;;4.35;;
48367;SDS011;34173;47.446;18.912;2022-08-04T19:33:34;7.60;;;4.00;;
48367;SDS011;34173;47.446;18.912;2022-08-04T19:36:23;9.10;;;4.05;;
48367;SDS011;34173;47.446;18.912;2022-08-04T19:39:02;10.43;;;4.12;;
48367;SDS011;34173;47.446;18.912;2022-08-04T19:41:38;8.65;;;4.60;;
48367;SDS011;34173;47.446;18.912;2022-08-04T19:44:26;6.93;;;4.07;;
48367;SDS011;34173;47.446;18.912;2022-08-04T19:46:57;7.87;;;4.20;;
48367;SDS011;34173;47.446;18.912;2022-08-04T19:49:28;10.98;;;4.37;;
48367;SDS011;34173;47.446;18.912;2022-08-04T19:52:16;8.10;;;4.47;;
48367;SDS011;34173;47.446;18.912;2022-08-04T19:55:00;8.23;;;4.73;;
48367;SDS011;34173;47.446;18.912;2022-08-04T19:57:37;7.12;;;4.37;;
48367;SDS011;34173;47.446;18.912;2022-08-04T20:00:15;7.65;;;4.87;;